Time;durP1;ratioP1;P1;durP2;ratioP2;P2;SDS_P1;SDS_P2;PMS_P1;PMS_P2;Temp;Humidity;BMP_temperature;BMP_pressure;BME280_temperature;BME280_humidity;BME280_pressure;Samples;Min_cycle;Max_cycle;Signal;HPM_P1;HPM_P2
2022/12/09 00:00:06;;;;;;;29.90;20.92;;;4.60;99.90;5.10;98225.00;;;;343071;28;86690;-86
2022/12/09 00:00:19;;;;;;;29.98;20.88;;;4.60;99.90;5.10;98234.00;;;;339911;28;93455;-86
2022/12/09 00:00:31;;;;;;;30.75;20.88;;;4.60;99.90;5.10;98229.00;;;;340267;28;88308;-85
2022/12/09 00:00:43;;;;;;;32.03;21.92;;;4.60;99.90;5.10;98231.00;;;;344172;28;88199;-85
2022/12/09 00:00:55;;;;;;;34.88;23.10;;;4.60;99.90;5.10;98229.00;;;;338882;28;86799;-85
2022/12/09 00:01:20;;;;;;;35.28;22.52;;;4.60;99.90;5.20;98225.00;;;;344033;28;91811;-86
2022/12/09 00:01:32;;;;;;;32.15;22.05;;;4.60;99.90;5.10;98233.00;;;;341374;28;87148;-85
2022/12/09 00:01:44;;;;;;;34.03;22.67;;;4.70;99.90;4.80;98232.00;;;;339785;28;92450;-85
2022/12/09 00:01:56;;;;;;;33.90;21.92;;;4.70;99.90;4.70;98227.00;;;;341528;28;87257;-86
2022/12/09 00:02:08;;;;;;;31.98;20.95;;;4.70;99.90;4.80;98225.00;;;;342761;28;91299;-85
2022/12/09 00:02:20;;;;;;;30.55;20.40;;;4.60;99.90;4.90;98234.00;;;;343028;28;86434;-86
2022/12/09 00:02:32;;;;;;;31.67;21.45;;;4.60;99.90;4.90;98228.00;;;;341179;28;91834;-85
2022/12/09 00:02:44;;;;;;;33.33;22.35;;;4.60;99.90;4.70;98236.00;;;;342922;28;87329;-85
2022/12/09 00:02:57;;;;;;;33.17;22.50;;;4.60;99.90;4.80;98221.00;;;;344009;28;92825;-86
2022/12/09 00:03:10;;;;;;;31.63;21.23;;;4.60;99.90;4.90;98232.00;;;;344186;28;88037;-85
2022/12/09 00:03:22;;;;;;;32.05;21.23;;;4.70;99.90;4.90;98224.00;;;;341510;28;89203;-85
2022/12/09 00:03:34;;;;;;;32.70;21.63;;;4.60;99.90;4.90;98234.00;;;;340313;28;85092;-85
2022/12/09 00:03:47;;;;;;;34.72;21.70;;;4.60;99.90;4.80;98231.00;;;;342637;28;92474;-85
2022/12/09 00:03:59;;;;;;;35.22;21.75;;;4.60;99.90;4.60;98229.00;;;;342865;28;87324;-85
2022/12/09 00:04:11;;;;;;;36.67;21.90;;;4.60;99.90;4.80;98235.00;;;;342747;28;89518;-85
2022/12/09 00:04:23;;;;;;;35.50;21.85;;;4.60;99.90;4.90;98231.00;;;;341468;28;87083;-85
2022/12/09 00:04:36;;;;;;;33.38;21.77;;;4.60;99.90;4.90;98229.00;;;;343971;28;93037;-85
2022/12/09 00:04:48;;;;;;;33.35;21.35;;;4.60;99.90;5.00;98219.00;;;;341418;28;85410;-84
2022/12/09 00:05:00;;;;;;;32.05;21.42;;;4.60;99.90;5.10;98229.00;;;;342550;28;90854;-85
2022/12/09 00:05:12;;;;;;;33.13;22.17;;;4.70;99.90;4.80;98231.00;;;;344261;28;86965;-85
2022/12/09 00:05:25;;;;;;;34.42;22.73;;;4.60;99.90;4.70;98223.00;;;;341344;28;92290;-85
2022/12/09 00:05:39;;;;;;;33.92;22.17;;;4.60;99.90;4.60;98242.00;;;;341680;28;87435;-86
2022/12/09 00:05:51;;;;;;;33.08;21.92;;;4.60;99.90;4.80;98228.00;;;;341318;28;91627;-86
2022/12/09 00:06:20;;;;;;;32.63;21.95;;;4.60;99.90;4.90;98228.00;;;;347055;28;87103;-85
2022/12/09 00:06:32;;;;;;;32.75;22.55;;;4.60;99.90;4.80;98233.00;;;;341263;28;90493;-85
2022/12/09 00:06:44;;;;;;;32.58;22.13;;;4.60;99.90;4.60;98233.00;;;;341626;28;84582;-85
2022/12/09 00:06:56;;;;;;;32.13;22.05;;;4.60;99.90;4.50;98235.00;;;;342572;28;92413;-85
2022/12/09 00:07:08;;;;;;;33.70;22.55;;;4.60;99.90;4.70;98228.00;;;;342698;28;87794;-85
2022/12/09 00:07:20;;;;;;;34.97;23.00;;;4.60;99.90;4.80;98226.00;;;;341251;28;88413;-85
2022/12/09 00:07:35;;;;;;;33.88;22.90;;;4.60;99.90;4.60;98231.00;;;;338952;28;87053;-85
2022/12/09 00:07:47;;;;;;;33.25;22.52;;;4.50;99.90;4.50;98232.00;;;;342694;28;91690;-86
2022/12/09 00:07:58;;;;;;;34.50;22.23;;;4.50;99.90;4.60;98233.00;;;;341644;28;84527;-86
2022/12/09 00:08:11;;;;;;;35.00;21.70;;;4.50;99.90;4.70;98231.00;;;;342801;28;89123;-86
2022/12/09 00:08:23;;;;;;;36.17;21.70;;;4.50;99.90;4.50;98233.00;;;;344353;28;86069;-85
2022/12/09 00:08:37;;;;;;;36.60;21.85;;;4.50;99.90;4.60;98238.00;;;;342742;28;89462;-85
2022/12/09 00:08:49;;;;;;;37.50;22.13;;;4.50;99.90;4.70;98233.00;;;;340258;28;87223;-85
2022/12/09 00:09:01;;;;;;;36.88;22.38;;;4.50;99.90;4.50;98229.00;;;;339929;28;92469;-85
2022/12/09 00:09:14;;;;;;;32.88;22.48;;;4.50;99.90;4.20;98228.00;;;;342937;28;85882;-85
2022/12/09 00:09:26;;;;;;;32.30;22.60;;;4.40;99.90;4.20;98239.00;;;;340671;28;91461;-85
2022/12/09 00:09:38;;;;;;;34.40;23.13;;;4.40;99.90;4.20;98233.00;;;;343044;28;84833;-85
2022/12/09 00:09:50;;;;;;;35.97;23.85;;;4.30;99.90;4.50;98223.00;;;;338526;28;91267;-85
2022/12/09 00:10:03;;;;;;;35.45;23.60;;;4.30;99.90;4.50;98219.00;;;;340301;28;86082;-85
2022/12/09 00:10:16;;;;;;;35.33;23.42;;;4.30;99.90;4.60;98224.00;;;;341519;28;88926;-85
2022/12/09 00:10:28;;;;;;;35.25;22.67;;;4.30;99.90;4.60;98224.00;;;;341580;28;86044;-85
2022/12/09 00:10:43;;;;;;;35.08;23.20;;;4.30;99.90;4.60;98215.00;;;;341208;28;92330;-85
2022/12/09 00:10:55;;;;;;;35.20;22.45;;;4.30;99.90;4.50;98222.00;;;;340150;28;86219;-86
2022/12/09 00:11:07;;;;;;;33.45;21.90;;;4.30;99.90;4.60;98225.00;;;;343621;28;92929;-85
2022/12/09 00:11:19;;;;;;;31.08;21.25;;;4.30;99.90;4.70;98213.00;;;;341578;28;87199;-86
2022/12/09 00:11:31;;;;;;;32.22;22.48;;;4.30;99.90;4.70;98211.00;;;;342729;28;92625;-85
2022/12/09 00:11:43;;;;;;;32.78;22.33;;;4.40;99.90;4.80;98216.00;;;;340418;28;83558;-85
2022/12/09 00:11:55;;;;;;;33.92;22.08;;;4.30;99.90;4.80;98217.00;;;;339961;28;89123;-85
2022/12/09 00:12:07;;;;;;;33.13;22.00;;;4.40;99.90;4.80;98214.00;;;;342825;28;86122;-85
2022/12/09 00:12:19;;;;;;;34.10;22.48;;;4.40;99.90;4.80;98217.00;;;;342699;28;92128;-85
2022/12/09 00:12:31;;;;;;;34.40;22.63;;;4.40;99.90;4.70;98215.00;;;;344417;28;84057;-85
2022/12/09 00:12:43;;;;;;;33.92;22.75;;;4.40;99.90;4.70;98216.00;;;;339989;28;90582;-85
2022/12/09 00:12:55;;;;;;;33.28;22.33;;;4.40;99.90;4.70;98210.00;;;;340246;28;87626;-85
2022/12/09 00:13:07;;;;;;;34.05;22.05;;;4.30;99.90;4.80;98221.00;;;;341289;28;93534;-86
2022/12/09 00:13:19;;;;;;;35.17;22.55;;;4.30;99.90;4.70;98207.00;;;;340386;28;83592;-85
2022/12/09 00:13:31;;;;;;;34.97;22.80;;;4.40;99.90;4.50;98214.00;;;;342808;28;88893;-85
2022/12/09 00:13:42;;;;;;;35.10;23.13;;;4.40;99.90;4.40;98216.00;;;;341614;28;83758;-85
2022/12/09 00:13:56;;;;;;;34.35;22.90;;;4.40;99.90;4.40;98216.00;;;;339960;28;91597;-85
2022/12/09 00:14:08;;;;;;;34.70;22.88;;;4.30;99.90;4.60;98219.00;;;;341578;28;87162;-85
2022/12/09 00:14:20;;;;;;;33.65;21.77;;;4.30;99.90;4.70;98217.00;;;;341441;28;89855;-85
2022/12/09 00:14:32;;;;;;;32.75;21.10;;;4.30;99.90;4.70;98225.00;;;;341214;28;87134;-85
2022/12/09 00:14:44;;;;;;;32.03;21.23;;;4.30;99.90;4.80;98213.00;;;;339993;28;91873;-85
2022/12/09 00:14:56;;;;;;;32.45;21.73;;;4.40;99.90;4.80;98216.00;;;;341653;28;85154;-85
2022/12/09 00:15:09;;;;;;;33.15;21.60;;;4.40;99.90;4.80;98217.00;;;;342667;28;90649;-85
2022/12/09 00:15:21;;;;;;;35.13;22.40;;;4.30;99.90;4.90;98204.00;;;;338848;28;87346;-85
2022/12/09 00:15:32;;;;;;;33.90;22.52;;;4.40;99.90;4.80;98204.00;;;;344082;28;88940;-85
2022/12/09 00:15:46;;;;;;;36.53;24.02;;;4.40;99.90;4.80;98211.00;;;;343016;28;84824;-85
2022/12/09 00:15:58;;;;;;;34.88;23.92;;;4.40;99.90;4.80;98207.00;;;;345134;28;91151;-85
2022/12/09 00:16:13;;;;;;;32.53;22.90;;;4.40;99.90;4.90;98199.00;;;;344307;28;85170;-85
2022/12/09 00:16:25;;;;;;;32.45;21.88;;;4.40;99.90;4.90;98208.00;;;;341275;28;91861;-85
2022/12/09 00:16:38;;;;;;;35.10;22.05;;;4.40;99.90;5.00;98214.00;;;;341545;28;87952;-85
2022/12/09 00:16:50;;;;;;;35.03;21.92;;;4.40;99.90;4.90;98199.00;;;;341066;28;91736;-85
2022/12/09 00:17:02;;;;;;;33.95;21.00;;;4.50;99.90;4.90;98201.00;;;;343060;28;85459;-85
2022/12/09 00:17:14;;;;;;;32.95;21.42;;;4.50;99.90;4.90;98201.00;;;;341120;28;92603;-85
2022/12/09 00:17:26;;;;;;;33.63;22.08;;;4.50;99.90;5.00;98204.00;;;;340227;28;86962;-85
2022/12/09 00:17:38;;;;;;;32.35;21.45;;;4.50;99.90;4.90;98205.00;;;;344100;28;90811;-85
2022/12/09 00:17:50;;;;;;;30.85;20.23;;;4.50;99.90;4.90;98208.00;;;;340133;28;87974;-85
2022/12/09 00:18:02;;;;;;;29.13;19.98;;;4.50;99.90;5.00;98207.00;;;;341365;28;91612;-85
2022/12/09 00:18:14;;;;;;;29.45;19.98;;;4.50;99.90;4.90;98206.00;;;;339015;28;84895;-85
2022/12/09 00:18:26;;;;;;;30.77;21.45;;;4.50;99.90;5.00;98197.00;;;;341227;28;92254;-85
2022/12/09 00:18:38;;;;;;;33.22;22.25;;;4.50;99.90;5.00;98198.00;;;;343070;28;83332;-85
2022/12/09 00:18:50;;;;;;;35.97;22.13;;;4.50;99.90;5.00;98201.00;;;;341149;28;90043;-85
2022/12/09 00:19:02;;;;;;;31.70;19.85;;;4.50;99.90;5.00;98203.00;;;;344401;28;84953;-85
2022/12/09 00:19:14;;;;;;;30.85;19.58;;;4.50;99.90;5.10;98198.00;;;;343643;28;92895;-85
2022/12/09 00:19:26;;;;;;;33.42;21.42;;;4.60;99.90;5.10;98206.00;;;;340266;28;86148;-85
2022/12/09 00:19:38;;;;;;;34.75;22.08;;;4.60;99.90;5.10;98193.00;;;;344093;28;92365;-85
2022/12/09 00:19:50;;;;;;;33.88;20.80;;;4.60;99.90;5.10;98193.00;;;;341572;28;83606;-85
2022/12/09 00:20:03;;;;;;;31.75;19.83;;;4.60;99.90;5.10;98201.00;;;;341347;28;92774;-85
2022/12/09 00:20:15;;;;;;;32.25;20.33;;;4.60;99.90;5.10;98194.00;;;;344290;28;87193;-85
2022/12/09 00:20:27;;;;;;;31.66;20.38;;;4.70;99.90;5.10;98192.00;;;;342671;28;92324;-85
2022/12/09 00:20:39;;;;;;;31.73;20.80;;;4.70;99.90;5.20;98204.00;;;;342967;28;87633;-85
2022/12/09 00:20:51;;;;;;;31.35;20.55;;;4.70;99.90;5.10;98201.00;;;;339996;28;91744;-85
2022/12/09 00:21:19;;;;;;;32.45;21.60;;;4.70;99.90;5.00;98204.00;;;;343194;28;84723;-85
2022/12/09 00:21:32;;;;;;;30.63;20.35;;;4.70;99.90;5.10;98208.00;;;;341413;28;90858;-86
2022/12/09 00:21:44;;;;;;;29.55;20.27;;;4.70;99.90;5.10;98200.00;;;;341647;28;84874;-85
2022/12/09 00:21:56;;;;;;;29.25;20.08;;;4.70;99.90;5.00;98198.00;;;;339947;28;89304;-85
2022/12/09 00:22:08;;;;;;;31.02;20.77;;;4.70;99.90;5.10;98200.00;;;;344305;28;87227;-85
2022/12/09 00:22:20;;;;;;;32.25;21.23;;;4.80;99.90;5.10;98194.00;;;;342803;28;89548;-85
2022/12/09 00:22:32;;;;;;;31.98;21.52;;;4.70;99.90;5.00;98195.00;;;;342961;28;84701;-85
2022/12/09 00:22:43;;;;;;;32.28;20.92;;;4.70;99.90;4.90;98201.00;;;;339966;28;91868;-85
2022/12/09 00:22:56;;;;;;;32.42;20.30;;;4.70;99.90;4.90;98192.00;;;;341277;28;87071;-85
2022/12/09 00:23:08;;;;;;;30.00;19.73;;;4.70;99.90;4.80;98186.00;;;;341353;28;89650;-85
2022/12/09 00:23:20;;;;;;;28.63;19.60;;;4.70;99.90;4.90;98192.00;;;;341567;28;87743;-85
2022/12/09 00:23:32;;;;;;;29.30;20.02;;;4.70;99.90;4.90;98184.00;;;;340056;28;88559;-85
2022/12/09 00:23:44;;;;;;;31.13;21.00;;;4.70;99.90;4.90;98195.00;;;;343017;28;85023;-86
2022/12/09 00:23:56;;;;;;;31.30;21.02;;;4.70;99.90;4.90;98193.00;;;;344003;28;89358;-85
2022/12/09 00:24:11;;;;;;;30.60;21.15;;;4.70;99.90;4.90;98186.00;;;;344377;28;87908;-85
2022/12/09 00:24:23;;;;;;;30.83;20.42;;;4.70;99.90;4.90;98185.00;;;;342720;28;91920;-85
2022/12/09 00:24:35;;;;;;;29.33;19.35;;;4.70;99.90;4.80;98192.00;;;;341665;28;83762;-85
2022/12/09 00:24:46;;;;;;;29.30;19.70;;;4.70;99.90;4.80;98184.00;;;;342736;28;90472;-85
2022/12/09 00:24:58;;;;;;;28.70;19.40;;;4.70;99.90;4.70;98187.00;;;;342911;28;86078;-85
2022/12/09 00:25:10;;;;;;;30.30;20.27;;;4.70;99.90;4.90;98184.00;;;;344047;28;88353;-86
2022/12/09 00:25:22;;;;;;;30.52;20.77;;;4.70;99.90;4.70;98195.00;;;;345660;28;86281;-85
2022/12/09 00:25:34;;;;;;;31.13;21.02;;;4.60;99.90;4.80;98183.00;;;;341370;28;90378;-85
2022/12/09 00:25:46;;;;;;;31.42;20.55;;;4.60;99.90;4.90;98190.00;;;;342854;28;87578;-86
2022/12/09 00:25:58;;;;;;;30.17;20.70;;;4.60;99.90;4.90;98186.00;;;;345460;28;89361;-85
2022/12/09 00:26:10;;;;;;;29.20;20.95;;;4.60;99.90;4.90;98188.00;;;;342868;28;87575;-85
2022/12/09 00:26:23;;;;;;;29.13;20.75;;;4.60;99.90;5.00;98187.00;;;;343835;28;90692;-85
2022/12/09 00:26:35;;;;;;;30.90;20.92;;;4.60;99.90;4.70;98189.00;;;;342887;28;84646;-85
2022/12/09 00:26:47;;;;;;;30.92;20.85;;;4.60;99.90;4.60;98191.00;;;;341327;28;90783;-85
2022/12/09 00:26:59;;;;;;;31.95;21.45;;;4.60;99.90;4.70;98193.00;;;;341572;28;88060;-85
2022/12/09 00:27:11;;;;;;;33.63;21.77;;;4.60;99.90;4.80;98183.00;;;;341420;28;88282;-85
2022/12/09 00:27:23;;;;;;;33.47;22.25;;;4.60;99.90;4.90;98189.00;;;;343109;28;83682;-85
2022/12/09 00:27:35;;;;;;;32.47;22.05;;;4.50;99.90;4.90;98185.00;;;;342596;28;92898;-85
2022/12/09 00:27:47;;;;;;;31.48;21.20;;;4.60;99.90;4.80;98187.00;;;;344284;28;87236;-85
2022/12/09 00:27:59;;;;;;;31.15;20.55;;;4.60;99.90;4.70;98184.00;;;;344095;28;91858;-85
2022/12/09 00:28:10;;;;;;;33.72;21.23;;;4.60;99.90;4.80;98177.00;;;;342946;28;86163;-85
2022/12/09 00:28:22;;;;;;;34.72;21.95;;;4.50;99.90;4.80;98184.00;;;;338641;28;91980;-85
2022/12/09 00:28:34;;;;;;;34.20;21.50;;;4.50;99.90;4.90;98166.00;;;;341539;28;86610;-85
2022/12/09 00:28:48;;;;;;;32.28;21.10;;;4.50;99.90;4.90;98179.00;;;;344122;28;89485;-85
2022/12/09 00:29:00;;;;;;;30.38;21.00;;;4.50;99.90;4.70;98179.00;;;;341681;28;83393;-85
2022/12/09 00:29:12;;;;;;;29.38;20.60;;;4.50;99.90;4.80;98178.00;;;;341056;28;92230;-85
2022/12/09 00:29:24;;;;;;;30.00;20.85;;;4.50;99.90;4.90;98178.00;;;;344316;28;87133;-86
2022/12/09 00:29:36;;;;;;;33.17;21.65;;;4.50;99.90;4.90;98170.00;;;;339927;28;93668;-85
2022/12/09 00:29:48;;;;;;;36.33;22.40;;;4.50;99.90;4.90;98176.00;;;;338826;28;86289;-86
2022/12/09 00:29:59;;;;;;;35.15;22.02;;;4.50;99.90;5.00;98180.00;;;;341445;28;88714;-85
2022/12/09 00:30:11;;;;;;;34.78;22.75;;;4.50;99.90;5.00;98172.00;;;;341599;28;87310;-85
2022/12/09 00:30:23;;;;;;;31.52;21.98;;;4.50;99.90;4.90;98175.00;;;;340065;28;89399;-86
2022/12/09 00:30:35;;;;;;;30.10;21.15;;;4.50;99.90;4.70;98173.00;;;;342928;28;87012;-85
2022/12/09 00:30:47;;;;;;;30.77;21.05;;;4.50;99.90;4.70;98178.00;;;;344146;28;88505;-85
2022/12/09 00:31:00;;;;;;;35.08;22.35;;;4.50;99.90;4.80;98171.00;;;;341674;28;84745;-85
2022/12/09 00:31:17;;;;;;;35.20;21.77;;;4.50;99.90;4.80;98170.00;;;;345351;28;89624;-85
2022/12/09 00:31:32;;;;;;;35.05;21.63;;;4.50;99.90;4.90;98174.00;;;;341595;28;88192;-85
2022/12/09 00:31:44;;;;;;;33.30;21.40;;;4.50;99.90;5.00;98179.00;;;;346518;28;92690;-85
2022/12/09 00:31:56;;;;;;;30.27;20.83;;;4.50;99.90;4.80;98170.00;;;;342932;28;86825;-86
2022/12/09 00:32:09;;;;;;;32.28;21.63;;;4.50;99.90;4.60;98173.00;;;;340136;28;89763;-85
2022/12/09 00:32:21;;;;;;;33.58;22.38;;;4.50;99.90;4.60;98169.00;;;;342989;28;87558;-86
2022/12/09 00:32:32;;;;;;;35.30;22.55;;;4.50;99.90;4.50;98174.00;;;;338562;28;90897;-86
2022/12/09 00:32:44;;;;;;;32.85;20.92;;;4.50;99.90;4.60;98167.00;;;;344273;28;87557;-85
2022/12/09 00:32:56;;;;;;;31.10;20.40;;;4.40;99.90;4.80;98168.00;;;;341196;28;91033;-85
2022/12/09 00:33:08;;;;;;;32.35;21.00;;;4.50;99.90;4.70;98163.00;;;;338889;28;84808;-85
2022/12/09 00:33:20;;;;;;;33.85;22.10;;;4.50;99.90;4.80;98158.00;;;;342654;28;90856;-85
2022/12/09 00:33:33;;;;;;;32.30;21.27;;;4.40;99.90;4.80;98169.00;;;;344332;28;87405;-85
2022/12/09 00:33:45;;;;;;;32.30;20.83;;;4.40;99.90;4.70;98168.00;;;;342516;28;91173;-85
2022/12/09 00:34:03;;;;;;;32.67;21.02;;;4.40;99.90;4.80;98173.00;;;;341694;28;83816;-85
2022/12/09 00:34:15;;;;;;;29.92;20.70;;;4.40;99.90;4.70;98169.00;;;;343681;28;92935;-85
2022/12/09 00:34:27;;;;;;;29.88;20.90;;;4.40;99.90;4.80;98170.00;;;;341566;28;84551;-85
2022/12/09 00:34:39;;;;;;;29.52;20.88;;;4.40;99.90;4.80;98166.00;;;;339941;28;92391;-85
2022/12/09 00:34:50;;;;;;;30.27;21.38;;;4.40;99.90;4.80;98160.00;;;;341729;28;84510;-85
2022/12/09 00:35:03;;;;;;;32.28;21.40;;;4.40;99.90;4.90;98167.00;;;;342200;28;89066;-85
2022/12/09 00:35:15;;;;;;;32.50;21.10;;;4.40;99.90;4.90;98172.00;;;;341613;28;84814;-86
2022/12/09 00:35:27;;;;;;;30.13;20.17;;;4.50;99.90;4.90;98166.00;;;;342663;28;92902;-85
2022/12/09 00:35:39;;;;;;;28.75;19.75;;;4.50;99.90;4.90;98172.00;;;;342997;28;85874;-85
2022/12/09 00:35:51;;;;;;;27.85;20.08;;;4.50;99.90;4.80;98179.00;;;;344051;28;89178;-85
2022/12/09 00:36:10;;;;;;;27.50;20.17;;;4.50;99.90;4.90;98167.00;;;;343065;28;83325;-85
2022/12/09 00:36:22;;;;;;;28.02;20.00;;;4.50;99.90;4.60;98181.00;;;;345278;28;92101;-85
2022/12/09 00:36:34;;;;;;;29.63;21.05;;;4.50;99.90;4.70;98159.00;;;;342876;28;84857;-85
2022/12/09 00:36:46;;;;;;;31.42;21.88;;;4.50;99.90;4.80;98178.00;;;;340053;28;89574;-85
2022/12/09 00:36:58;;;;;;;31.52;21.08;;;4.50;99.90;4.80;98175.00;;;;342911;28;87102;-84
2022/12/09 00:37:10;;;;;;;30.85;20.15;;;4.50;99.90;4.90;98174.00;;;;342637;28;89882;-85
2022/12/09 00:37:22;;;;;;;32.63;20.27;;;4.50;99.90;4.70;98174.00;;;;342898;28;87906;-85
2022/12/09 00:37:34;;;;;;;32.72;20.63;;;4.50;99.90;4.80;98168.00;;;;342637;28;92549;-85
2022/12/09 00:37:46;;;;;;;29.67;19.42;;;4.50;99.90;4.80;98176.00;;;;344276;28;87072;-85
2022/12/09 00:37:57;;;;;;;29.30;18.52;;;4.50;99.90;4.80;98176.00;;;;339917;28;89800;-85
2022/12/09 00:38:09;;;;;;;30.15;18.88;;;4.50;99.90;4.90;98186.00;;;;341517;28;87002;-85
2022/12/09 00:38:21;;;;;;;30.55;20.10;;;4.50;99.90;4.90;98179.00;;;;340062;28;92139;-85
2022/12/09 00:38:33;;;;;;;28.83;20.80;;;4.50;99.90;4.70;98170.00;;;;342937;28;84854;-85
2022/12/09 00:38:45;;;;;;;27.48;19.88;;;4.50;99.90;4.70;98176.00;;;;341433;28;89687;-85
2022/12/09 00:38:58;;;;;;;28.40;19.80;;;4.50;99.90;4.70;98177.00;;;;341371;28;84405;-86
2022/12/09 00:39:11;;;;;;;32.42;21.05;;;4.50;99.90;4.60;98180.00;;;;342515;28;91960;-85
2022/12/09 00:39:23;;;;;;;32.85;22.02;;;4.50;99.90;4.70;98172.00;;;;342964;28;86425;-85
2022/12/09 00:39:35;;;;;;;30.83;21.70;;;4.50;99.90;4.80;98175.00;;;;346924;28;89415;-85
2022/12/09 00:39:47;;;;;;;32.13;22.17;;;4.50;99.90;4.70;98178.00;;;;345695;28;84203;-85
2022/12/09 00:39:59;;;;;;;34.22;22.63;;;4.50;99.90;4.70;98185.00;;;;341202;28;92936;-86
2022/12/09 00:40:12;;;;;;;32.42;21.20;;;4.50;99.90;4.80;98180.00;;;;342762;28;87643;-85
2022/12/09 00:40:24;;;;;;;32.13;20.30;;;4.40;99.90;4.70;98179.00;;;;339812;28;89378;-85
2022/12/09 00:40:36;;;;;;;31.15;19.55;;;4.50;99.90;4.80;98177.00;;;;341298;28;87073;-85
2022/12/09 00:40:48;;;;;;;29.10;19.80;;;4.50;99.90;4.80;98179.00;;;;342606;28;92504;-85
2022/12/09 00:41:00;;;;;;;28.98;20.13;;;4.50;99.90;4.80;98178.00;;;;343070;28;86072;-85
2022/12/09 00:41:12;;;;;;;29.20;20.73;;;4.50;99.90;4.90;98176.00;;;;339731;28;91919;-85
2022/12/09 00:41:24;;;;;;;29.75;20.50;;;4.50;99.90;4.70;98178.00;;;;347055;28;86544;-85
2022/12/09 00:41:36;;;;;;;31.45;21.30;;;4.50;99.90;4.40;98177.00;;;;341341;28;88745;-85
2022/12/09 00:41:50;;;;;;;32.10;21.83;;;4.40;99.90;4.30;98179.00;;;;344275;28;84836;-86
2022/12/09 00:42:01;;;;;;;31.52;21.40;;;4.40;99.90;4.40;98177.00;;;;339912;28;92900;-85
2022/12/09 00:42:13;;;;;;;34.05;22.33;;;4.30;99.90;4.30;98167.00;;;;342801;28;87973;-85
2022/12/09 00:42:25;;;;;;;35.50;22.52;;;4.30;99.90;4.20;98172.00;;;;339979;28;88298;-85
2022/12/09 00:42:37;;;;;;;36.00;22.55;;;4.30;99.90;4.40;98174.00;;;;342794;28;87426;-85
2022/12/09 00:42:52;;;;;;;32.97;21.60;;;4.20;99.90;4.40;98165.00;;;;341225;28;92765;-85
2022/12/09 00:43:03;;;;;;;31.63;21.35;;;4.20;99.90;4.30;98180.00;;;;342929;28;86925;-85
2022/12/09 00:43:15;;;;;;;30.45;21.33;;;4.20;99.90;4.40;98174.00;;;;342710;28;89345;-85
2022/12/09 00:43:27;;;;;;;32.28;21.90;;;4.20;99.90;4.50;98174.00;;;;340230;28;87635;-85
2022/12/09 00:43:40;;;;;;;31.85;21.58;;;4.20;99.90;4.60;98182.00;;;;341389;28;88872;-85
2022/12/09 00:43:51;;;;;;;33.25;21.25;;;4.20;99.90;4.60;98182.00;;;;344123;28;85056;-85
2022/12/09 00:44:04;;;;;;;32.75;21.27;;;4.20;99.90;4.60;98177.00;;;;342542;28;92917;-85
2022/12/09 00:44:16;;;;;;;31.10;21.02;;;4.20;99.90;4.70;98174.00;;;;341678;28;83812;-85
2022/12/09 00:44:28;;;;;;;29.00;19.88;;;4.20;99.90;4.70;98176.00;;;;341197;28;92570;-85
2022/12/09 00:44:40;;;;;;;28.67;19.95;;;4.20;99.90;4.80;98178.00;;;;342922;28;84793;-85
2022/12/09 00:44:52;;;;;;;29.02;20.17;;;4.20;99.90;4.60;98181.00;;;;345164;28;91622;-86
2022/12/09 00:45:06;;;;;;;30.92;21.62;;;4.30;99.90;4.40;98175.00;;;;341639;28;84189;-85
2022/12/09 00:45:18;;;;;;;32.60;22.08;;;4.30;99.90;4.40;98175.00;;;;343960;28;91890;-85
2022/12/09 00:45:30;;;;;;;32.47;21.10;;;4.20;99.90;4.40;98190.00;;;;340341;28;85102;-85
2022/12/09 00:45:42;;;;;;;33.30;20.80;;;4.20;99.90;4.60;98169.00;;;;339880;28;92614;-85
2022/12/09 00:45:54;;;;;;;30.08;20.52;;;4.20;99.90;4.70;98179.00;;;;340042;28;89327;-85
2022/12/09 00:46:06;;;;;;;30.75;20.77;;;4.20;99.90;4.70;98177.00;;;;340038;28;90079;-85
2022/12/09 00:46:17;;;;;;;31.30;20.70;;;4.20;99.90;4.70;98167.00;;;;341537;28;87632;-85
2022/12/09 00:46:30;;;;;;;32.42;20.52;;;4.30;99.90;4.60;98177.00;;;;339854;28;93048;-85
2022/12/09 00:46:42;;;;;;;31.20;20.15;;;4.30;99.90;4.60;98178.00;;;;341702;28;84090;-85
2022/12/09 00:46:54;;;;;;;31.02;19.98;;;4.30;99.90;4.50;98177.00;;;;344022;28;90129;-85
2022/12/09 00:47:06;;;;;;;32.35;19.92;;;4.30;99.90;4.40;98181.00;;;;344384;28;84629;-85
2022/12/09 00:47:18;;;;;;;35.05;21.05;;;4.20;99.90;4.40;98169.00;;;;339954;28;92326;-85
2022/12/09 00:47:30;;;;;;;33.10;22.00;;;4.20;99.90;4.20;98186.00;;;;338925;28;87693;-85
2022/12/09 00:47:42;;;;;;;31.05;21.33;;;4.20;99.90;4.30;98184.00;;;;340854;28;91941;-85
2022/12/09 00:47:54;;;;;;;29.25;20.25;;;4.20;99.90;4.40;98176.00;;;;342827;28;88349;-85
2022/12/09 00:48:06;;;;;;;31.08;21.02;;;4.20;99.90;4.30;98182.00;;;;342689;28;90530;-85
2022/12/09 00:48:18;;;;;;;32.38;21.48;;;4.10;99.90;4.50;98177.00;;;;341579;28;85518;-85
2022/12/09 00:48:33;;;;;;;33.03;21.85;;;4.20;99.90;4.50;98176.00;;;;339988;28;91232;-85
2022/12/09 00:48:45;;;;;;;32.10;21.65;;;4.10;99.90;4.40;98181.00;;;;341434;28;87567;-85
2022/12/09 00:48:56;;;;;;;30.67;20.60;;;4.10;99.90;4.50;98179.00;;;;342695;28;89898;-85
2022/12/09 00:49:09;;;;;;;32.03;20.95;;;4.20;99.90;4.50;98172.00;;;;342836;28;86416;-85
2022/12/09 00:49:21;;;;;;;31.35;20.73;;;4.20;99.90;4.60;98181.00;;;;341403;28;89314;-85
2022/12/09 00:49:32;;;;;;;31.50;21.58;;;4.20;99.90;4.60;98180.00;;;;341593;28;86351;-85
2022/12/09 00:49:44;;;;;;;31.13;21.30;;;4.20;99.90;4.60;98170.00;;;;341175;28;92140;-85
2022/12/09 00:49:56;;;;;;;30.77;20.58;;;4.20;99.90;4.60;98171.00;;;;342936;28;87242;-85
2022/12/09 00:50:09;;;;;;;28.50;19.65;;;4.20;99.90;4.70;98176.00;;;;342598;28;93142;-85
2022/12/09 00:50:21;;;;;;;29.92;20.30;;;4.20;99.90;4.70;98178.00;;;;341679;28;83978;-85
2022/12/09 00:50:33;;;;;;;30.80;20.77;;;4.30;99.90;4.60;98171.00;;;;341088;28;91684;-85
2022/12/09 00:50:45;;;;;;;31.60;20.65;;;4.30;99.90;4.70;98172.00;;;;342668;28;86110;-85
2022/12/09 00:50:57;;;;;;;30.88;20.40;;;4.30;99.90;4.70;98173.00;;;;341236;28;92537;-85
2022/12/09 00:51:14;;;;;;;28.65;19.67;;;4.30;99.90;4.70;98169.00;;;;340130;28;84281;-85
2022/12/09 00:51:26;;;;;;;26.80;18.60;;;4.30;99.90;4.70;98170.00;;;;339909;28;93666;-86
2022/12/09 00:51:38;;;;;;;26.80;18.60;;;4.30;99.90;4.70;98169.00;;;;337534;28;88624;-85
2022/12/09 00:51:52;;;;;;;27.08;18.50;;;4.30;99.90;4.80;98165.00;;;;341116;28;91709;-85
2022/12/09 00:52:04;;;;;;;27.02;17.90;;;4.30;99.90;4.80;98177.00;;;;343000;28;85380;-85
2022/12/09 00:52:16;;;;;;;27.08;18.17;;;4.40;99.90;4.80;98171.00;;;;341358;28;91502;-85
2022/12/09 00:52:28;;;;;;;27.38;18.33;;;4.40;99.90;4.70;98165.00;;;;341542;28;84727;-85
2022/12/09 00:52:40;;;;;;;27.52;17.95;;;4.40;99.90;4.70;98175.00;;;;341207;28;92288;-85
2022/12/09 00:52:52;;;;;;;27.85;18.42;;;4.40;99.90;4.50;98172.00;;;;341387;28;84409;-85
2022/12/09 00:53:04;;;;;;;29.95;19.02;;;4.40;99.90;4.50;98178.00;;;;339951;28;90515;-85
2022/12/09 00:53:16;;;;;;;29.15;18.52;;;4.30;99.90;4.50;98170.00;;;;341586;28;84314;-85
2022/12/09 00:53:28;;;;;;;31.08;19.35;;;4.30;99.90;4.50;98169.00;;;;340018;28;89886;-85
2022/12/09 00:53:40;;;;;;;29.42;18.42;;;4.30;99.90;4.40;98171.00;;;;342896;28;87115;-85
2022/12/09 00:53:54;;;;;;;30.75;19.48;;;4.30;99.90;4.40;98166.00;;;;341172;28;90567;-85
2022/12/09 00:54:07;;;;;;;26.83;18.05;;;4.30;99.90;4.50;98165.00;;;;343005;28;84150;-85
2022/12/09 00:54:19;;;;;;;25.40;17.05;;;4.20;99.90;4.20;98171.00;;;;339916;28;91860;-85
2022/12/09 00:54:31;;;;;;;25.38;17.05;;;4.20;99.90;4.10;98174.00;;;;340238;28;84854;-85
2022/12/09 00:54:43;;;;;;;25.70;17.20;;;4.10;99.90;4.20;98169.00;;;;340000;28;89327;-85
2022/12/09 00:54:55;;;;;;;25.52;16.58;;;4.10;99.90;4.30;98163.00;;;;341568;28;86912;-85
2022/12/09 00:55:08;;;;;;;24.95;16.05;;;4.10;99.90;4.30;98169.00;;;;341270;28;92120;-86
2022/12/09 00:55:20;;;;;;;25.33;16.88;;;4.10;99.90;4.30;98169.00;;;;344233;28;87520;-85
2022/12/09 00:55:32;;;;;;;27.45;17.45;;;4.10;99.90;4.30;98160.00;;;;341367;28;88718;-85
2022/12/09 00:55:44;;;;;;;26.38;16.50;;;4.10;99.90;4.30;98170.00;;;;340095;28;87068;-85
2022/12/09 00:55:56;;;;;;;25.40;16.52;;;4.10;99.90;4.30;98167.00;;;;341212;28;90256;-85